createdAt,value
2022-11-07T00:00:15.286Z,42.15
2022-11-07T00:00:37.425Z,38.15
2022-11-07T00:00:59.842Z,38.47
2022-11-07T00:01:24.329Z,41.83
2022-11-07T00:01:48.121Z,43.22
2022-11-07T00:02:10.795Z,42.92
2022-11-07T00:02:34.709Z,42.50
2022-11-07T00:02:56.884Z,40.13
2022-11-07T00:03:18.956Z,44.78
2022-11-07T00:03:41.400Z,40.67
2022-11-07T00:04:04.085Z,39.60
2022-11-07T00:04:29.506Z,39.90
2022-11-07T00:04:51.693Z,41.35
2022-11-07T00:05:13.875Z,39.25
2022-11-07T00:05:40.243Z,38.60
2022-11-07T00:06:02.874Z,43.35
2022-11-07T00:06:24.740Z,43.88
2022-11-07T00:06:47.741Z,45.42
2022-11-07T00:07:09.991Z,42.20
2022-11-07T00:07:31.772Z,42.47
2022-11-07T00:07:53.568Z,36.55
2022-11-07T00:08:15.300Z,37.83
2022-11-07T00:08:37.169Z,41.78
2022-11-07T00:08:59.595Z,43.30
2022-11-07T00:09:21.744Z,42.60
2022-11-07T00:09:44.073Z,45.20
2022-11-07T00:10:06.806Z,44.22
2022-11-07T00:10:29.089Z,41.40
2022-11-07T00:10:54.713Z,42.97
2022-11-07T00:11:16.956Z,40.42
2022-11-07T00:11:38.701Z,37.97
2022-11-07T00:12:01.500Z,36.20
2022-11-07T00:12:23.451Z,40.17
2022-11-07T00:12:45.245Z,39.63
2022-11-07T00:13:06.997Z,39.92
2022-11-07T00:13:29.658Z,42.35
2022-11-07T00:13:51.941Z,41.50
2022-11-07T00:14:14.572Z,42.13
2022-11-07T00:14:36.726Z,39.35
2022-11-07T00:14:58.844Z,37.45
2022-11-07T00:15:20.631Z,36.28
2022-11-07T00:15:42.793Z,33.83
2022-11-07T00:16:06.767Z,37.40
2022-11-07T00:16:29.379Z,41.75
2022-11-07T00:16:51.445Z,41.47
2022-11-07T00:17:13.634Z,39.13
2022-11-07T00:17:35.359Z,37.88
2022-11-07T00:17:58.790Z,39.78
2022-11-07T00:18:21.382Z,43.33
2022-11-07T00:18:43.165Z,37.95
2022-11-07T00:19:05.165Z,39.80
2022-11-07T00:19:27.350Z,42.38
2022-11-07T00:19:49.293Z,39.78
2022-11-07T00:20:11.474Z,37.42
2022-11-07T00:20:33.303Z,40.10
2022-11-07T00:20:55.063Z,40.95
2022-11-07T00:21:16.840Z,39.40
2022-11-07T00:21:39.591Z,40.80
2022-11-07T00:22:01.430Z,42.58
2022-11-07T00:22:24.475Z,43.58
2022-11-07T00:22:46.236Z,40.70
2022-11-07T00:23:08.244Z,40.08
2022-11-07T00:23:30.670Z,37.17
2022-11-07T00:23:52.462Z,42.35
2022-11-07T00:24:17.456Z,45.63
2022-11-07T00:24:39.271Z,42.85
2022-11-07T00:25:01.484Z,40.88
2022-11-07T00:25:23.394Z,42.42
2022-11-07T00:25:45.948Z,46.72
2022-11-07T00:26:10.934Z,40.25
2022-11-07T00:26:32.781Z,45.50
2022-11-07T00:26:54.685Z,41.05
2022-11-07T00:27:16.555Z,42.90
2022-11-07T00:27:38.869Z,43.95
2022-11-07T00:28:01.081Z,41.75
2022-11-07T00:28:22.900Z,43.58
2022-11-07T00:28:45.045Z,42.53
2022-11-07T00:29:07.174Z,42.97
2022-11-07T00:29:29.017Z,43.20
2022-11-07T00:29:50.823Z,43.95
2022-11-07T00:30:13.237Z,41.17
2022-11-07T00:30:35.041Z,41.95
2022-11-07T00:30:59.334Z,39.95
2022-11-07T00:31:21.099Z,42.47
2022-11-07T00:31:43.396Z,42.65
2022-11-07T00:32:05.554Z,38.70
2022-11-07T00:32:27.395Z,38.10
2022-11-07T00:32:49.230Z,38.00
2022-11-07T00:33:11.112Z,40.40
2022-11-07T00:33:33.586Z,42.15
2022-11-07T00:33:55.578Z,42.60
2022-11-07T00:34:17.445Z,41.08
2022-11-07T00:34:39.819Z,39.42
2022-11-07T00:35:01.833Z,39.45
2022-11-07T00:35:23.763Z,41.83
2022-11-07T00:35:45.547Z,41.53
2022-11-07T00:36:11.053Z,37.92
2022-11-07T00:36:32.975Z,39.60
2022-11-07T00:36:54.713Z,41.28
2022-11-07T00:37:16.567Z,37.13
2022-11-07T00:37:38.827Z,40.05
2022-11-07T00:38:00.775Z,39.03
2022-11-07T00:38:22.665Z,37.67
2022-11-07T00:38:44.546Z,39.65
2022-11-07T00:39:06.791Z,38.72
2022-11-07T00:39:28.896Z,36.72
2022-11-07T00:39:50.797Z,37.08
2022-11-07T00:40:12.769Z,39.03
2022-11-07T00:40:35.221Z,38.03
2022-11-07T00:41:06.128Z,38.28
2022-11-07T00:41:31.107Z,38.53
2022-11-07T00:41:52.864Z,38.70
2022-11-07T00:42:14.671Z,36.92
2022-11-07T00:42:36.437Z,36.38
2022-11-07T00:42:58.736Z,39.53
2022-11-07T00:43:20.484Z,35.22
2022-11-07T00:43:42.333Z,37.85
2022-11-07T00:44:04.233Z,38.30
2022-11-07T00:44:25.996Z,36.30
2022-11-07T00:44:47.763Z,37.80
2022-11-07T00:45:11.795Z,34.63
2022-11-07T00:45:33.937Z,35.38
2022-11-07T00:45:56.086Z,36.20
2022-11-07T00:46:19.226Z,40.42
2022-11-07T00:46:41.054Z,37.67
2022-11-07T00:47:06.354Z,37.88
2022-11-07T00:47:28.475Z,35.45
2022-11-07T00:47:52.083Z,35.67
2022-11-07T00:48:13.807Z,38.95
2022-11-07T00:48:36.859Z,36.83
2022-11-07T00:48:59.086Z,34.92
2022-11-07T00:49:21.477Z,35.53
2022-11-07T00:49:43.636Z,40.72
2022-11-07T00:50:06.052Z,37.47
2022-11-07T00:50:30.389Z,39.25
2022-11-07T00:50:52.177Z,37.47
2022-11-07T00:51:15.263Z,36.95
2022-11-07T00:51:37.152Z,33.38
2022-11-07T00:51:58.916Z,35.75
2022-11-07T00:52:20.719Z,39.92
2022-11-07T00:52:42.873Z,38.75
2022-11-07T00:53:04.977Z,36.05
2022-11-07T00:53:26.733Z,36.60
2022-11-07T00:53:49.181Z,35.00
2022-11-07T00:54:10.980Z,37.85
2022-11-07T00:54:33.296Z,36.67
2022-11-07T00:54:55.453Z,34.85
2022-11-07T00:55:17.312Z,36.22
2022-11-07T00:55:39.168Z,35.72
2022-11-07T00:56:02.512Z,37.60
2022-11-07T00:56:25.887Z,35.67
2022-11-07T00:56:48.040Z,32.42
2022-11-07T00:57:10.205Z,32.85
2022-11-07T00:57:31.934Z,35.17
2022-11-07T00:57:53.699Z,32.22
2022-11-07T00:58:17.157Z,33.80
2022-11-07T00:58:39.348Z,39.25
2022-11-07T00:59:01.237Z,40.08
2022-11-07T00:59:23.423Z,37.78
2022-11-07T00:59:45.725Z,34.42
2022-11-07T01:00:08.269Z,36.13
2022-11-07T01:00:30.170Z,34.35
2022-11-07T01:00:51.940Z,33.70
2022-11-07T01:01:21.383Z,37.38
2022-11-07T01:01:43.775Z,35.42
2022-11-07T01:02:05.765Z,35.67
2022-11-07T01:02:27.697Z,34.72
2022-11-07T01:03:09.951Z,35.35
2022-11-07T01:03:50.504Z,33.58
2022-11-07T01:04:32.236Z,34.35
2022-11-07T01:05:12.264Z,35.05
2022-11-07T01:05:34.376Z,32.47
2022-11-07T01:06:01.427Z,34.47
2022-11-07T01:06:23.799Z,39.25
2022-11-07T01:06:46.356Z,37.55
2022-11-07T01:07:08.118Z,35.25
2022-11-07T01:07:29.865Z,37.95
2022-11-07T01:07:52.974Z,33.58
2022-11-07T01:08:14.733Z,30.30
2022-11-07T01:08:36.787Z,30.92
2022-11-07T01:08:59.491Z,32.90
2022-11-07T01:09:22.250Z,36.85
2022-11-07T01:09:44.061Z,34.13
2022-11-07T01:10:07.023Z,35.95
2022-11-07T01:10:29.279Z,37.08
2022-11-07T01:10:51.055Z,34.80
2022-11-07T01:11:12.848Z,34.13
2022-11-07T01:11:36.420Z,33.13
2022-11-07T01:11:58.835Z,36.88
2022-11-07T01:12:21.177Z,36.47
2022-11-07T01:12:44.085Z,33.30
2022-11-07T01:13:06.664Z,32.00
2022-11-07T01:13:28.449Z,34.00
2022-11-07T01:13:50.530Z,34.20
2022-11-07T01:14:13.801Z,32.13
2022-11-07T01:14:36.096Z,32.85
2022-11-07T01:14:57.904Z,31.48
2022-11-07T01:15:19.676Z,33.20
2022-11-07T01:15:44.139Z,35.05
2022-11-07T01:16:06.989Z,36.08
2022-11-07T01:16:30.626Z,36.10
2022-11-07T01:16:53.339Z,33.72
2022-11-07T01:17:15.068Z,37.30
2022-11-07T01:17:36.858Z,37.70
2022-11-07T01:17:58.613Z,36.83
2022-11-07T01:18:22.782Z,34.70
2022-11-07T01:18:44.524Z,35.00
2022-11-07T01:19:07.557Z,35.83
2022-11-07T01:19:29.500Z,32.65
2022-11-07T01:19:51.249Z,33.17
2022-11-07T01:20:13.508Z,35.08
2022-11-07T01:20:35.842Z,34.53
2022-11-07T01:20:57.631Z,37.05
2022-11-07T01:21:19.700Z,36.55
2022-11-07T01:21:42.604Z,38.13
2022-11-07T01:22:04.408Z,33.42
2022-11-07T01:22:26.169Z,33.08
2022-11-07T01:22:47.927Z,32.15
2022-11-07T01:23:10.131Z,34.38
2022-11-07T01:23:31.981Z,35.13
2022-11-07T01:23:53.815Z,30.98
2022-11-07T01:24:16.492Z,31.83
2022-11-07T01:24:38.851Z,32.15
2022-11-07T01:25:00.577Z,33.50
2022-11-07T01:25:22.371Z,31.35
2022-11-07T01:25:44.093Z,33.88
2022-11-07T01:26:07.978Z,34.63
2022-11-07T01:26:30.063Z,32.67
2022-11-07T01:26:51.977Z,34.88
2022-11-07T01:27:13.800Z,32.92
2022-11-07T01:27:35.524Z,31.05
2022-11-07T01:27:57.707Z,31.95
2022-11-07T01:28:19.476Z,30.23
2022-11-07T01:28:41.911Z,33.45
2022-11-07T01:29:04.924Z,29.90
2022-11-07T01:29:26.957Z,30.58
2022-11-07T01:29:49.075Z,30.30
2022-11-07T01:30:11.356Z,33.83
2022-11-07T01:30:33.179Z,33.50
2022-11-07T01:30:54.890Z,30.15
2022-11-07T01:31:17.411Z,33.25
2022-11-07T01:31:39.196Z,36.40
2022-11-07T01:32:01.037Z,34.65
2022-11-07T01:32:22.856Z,36.00
2022-11-07T01:32:44.654Z,30.45
2022-11-07T01:33:06.842Z,29.95
2022-11-07T01:33:28.611Z,31.48
2022-11-07T01:33:50.765Z,31.52
2022-11-07T01:34:13.156Z,29.17
2022-11-07T01:34:34.953Z,31.40
2022-11-07T01:34:56.689Z,32.95
2022-11-07T01:35:18.477Z,27.55
2022-11-07T01:35:40.639Z,29.40
2022-11-07T01:36:21.011Z,30.42
2022-11-07T01:36:42.882Z,31.98
2022-11-07T01:37:04.657Z,32.00
2022-11-07T01:37:26.453Z,28.80
2022-11-07T01:37:48.175Z,31.45
2022-11-07T01:38:10.127Z,29.35
2022-11-07T01:38:31.965Z,28.65
2022-11-07T01:38:53.724Z,31.13
2022-11-07T01:39:15.496Z,33.20
2022-11-07T01:39:37.431Z,31.77
2022-11-07T01:40:00.694Z,32.47
2022-11-07T01:40:22.477Z,33.47
2022-11-07T01:41:03.269Z,29.95
2022-11-07T01:41:29.996Z,33.42
2022-11-07T01:41:51.748Z,33.53
2022-11-07T01:42:13.622Z,33.20
2022-11-07T01:42:35.432Z,30.63
2022-11-07T01:42:57.177Z,30.25
2022-11-07T01:43:18.900Z,34.30
2022-11-07T01:43:56.784Z,30.02
2022-11-07T01:44:19.215Z,30.38
2022-11-07T01:44:41.006Z,32.15
2022-11-07T01:45:02.878Z,33.10
2022-11-07T01:45:30.879Z,33.03
2022-11-07T01:45:53.040Z,29.83
2022-11-07T01:46:15.687Z,30.15
2022-11-07T01:46:38.973Z,31.23
2022-11-07T01:47:01.386Z,31.73
2022-11-07T01:47:26.814Z,29.40
2022-11-07T01:47:49.962Z,29.60
2022-11-07T01:48:11.800Z,31.23
2022-11-07T01:48:33.762Z,32.38
2022-11-07T01:49:01.723Z,30.27
2022-11-07T01:49:29.726Z,30.67
2022-11-07T01:49:53.130Z,29.85
2022-11-07T01:50:15.400Z,30.52
2022-11-07T01:50:37.189Z,32.10
2022-11-07T01:50:59.536Z,30.63
2022-11-07T01:51:25.189Z,28.70
2022-11-07T01:51:58.709Z,30.58
2022-11-07T01:52:34.984Z,29.40
2022-11-07T01:52:57.739Z,33.10
2022-11-07T01:53:19.908Z,32.15
2022-11-07T01:53:42.553Z,32.10
2022-11-07T01:54:05.109Z,35.13
2022-11-07T01:54:50.368Z,35.80
2022-11-07T01:55:12.467Z,29.77
2022-11-07T01:55:36.022Z,30.40
2022-11-07T01:55:57.934Z,31.35
2022-11-07T01:56:24.138Z,32.13
2022-11-07T01:56:46.310Z,32.10
2022-11-07T01:57:15.211Z,33.08
2022-11-07T01:58:09.789Z,33.72
2022-11-07T01:58:31.607Z,33.95
2022-11-07T01:58:56.147Z,31.15
2022-11-07T01:59:20.885Z,30.85
2022-11-07T01:59:42.907Z,31.98
2022-11-07T02:00:07.302Z,28.10
2022-11-07T02:00:31.375Z,28.33
2022-11-07T02:00:53.607Z,28.90
2022-11-07T02:01:16.883Z,28.58
2022-11-07T02:01:38.974Z,30.88
2022-11-07T02:02:01.484Z,30.05
2022-11-07T02:02:25.559Z,28.63
2022-11-07T02:02:51.225Z,31.25
2022-11-07T02:03:17.680Z,28.38
2022-11-07T02:03:39.909Z,28.67
2022-11-07T02:04:02.685Z,29.27
2022-11-07T02:04:27.226Z,27.48
2022-11-07T02:04:48.994Z,29.05
2022-11-07T02:05:12.631Z,34.50
2022-11-07T02:05:46.637Z,31.05
2022-11-07T02:06:14.864Z,32.38
2022-11-07T02:06:42.120Z,30.92
2022-11-07T02:07:13.202Z,29.60
2022-11-07T02:07:35.634Z,32.33
2022-11-07T02:07:58.990Z,30.13
2022-11-07T02:08:23.021Z,28.20
2022-11-07T02:08:46.767Z,30.17
2022-11-07T02:09:09.159Z,31.63
2022-11-07T02:09:31.680Z,29.17
2022-11-07T02:09:54.509Z,30.45
2022-11-07T02:10:16.896Z,32.08
2022-11-07T02:10:40.758Z,28.10
2022-11-07T02:11:03.663Z,32.03
2022-11-07T02:11:25.907Z,29.35
2022-11-07T02:11:48.097Z,30.63
2022-11-07T02:12:11.518Z,31.15
2022-11-07T02:12:33.521Z,31.48
2022-11-07T02:12:59.137Z,29.70
2022-11-07T02:13:27.157Z,28.92
2022-11-07T02:13:49.375Z,30.55
2022-11-07T02:14:18.107Z,31.10
2022-11-07T02:14:42.396Z,30.35
2022-11-07T02:15:05.205Z,28.25
2022-11-07T02:15:27.631Z,30.27
2022-11-07T02:15:49.605Z,32.35
2022-11-07T02:16:11.445Z,32.17
2022-11-07T02:16:36.046Z,31.15
2022-11-07T02:17:01.597Z,31.20
2022-11-07T02:17:23.785Z,26.67
2022-11-07T02:17:45.828Z,28.67
2022-11-07T02:18:08.017Z,28.75
2022-11-07T02:18:30.800Z,29.23
2022-11-07T02:18:52.905Z,29.90
2022-11-07T02:19:27.216Z,35.40
2022-11-07T02:19:54.096Z,29.15
2022-11-07T02:20:16.224Z,31.77
2022-11-07T02:20:38.062Z,30.80
2022-11-07T02:21:25.992Z,29.85
2022-11-07T02:21:58.847Z,30.15
2022-11-07T02:22:32.394Z,30.95
2022-11-07T02:23:14.136Z,31.83
2022-11-07T02:24:04.448Z,30.80
2022-11-07T02:24:34.950Z,32.33
2022-11-07T02:24:59.877Z,32.83
2022-11-07T02:25:22.185Z,28.10
2022-11-07T02:25:44.203Z,29.05
2022-11-07T02:26:06.574Z,29.67
2022-11-07T02:26:29.242Z,29.80
2022-11-07T02:26:53.429Z,30.73
2022-11-07T02:27:18.390Z,29.98
2022-11-07T02:27:41.813Z,32.58
2022-11-07T02:28:08.410Z,31.52
2022-11-07T02:28:32.606Z,34.17
2022-11-07T02:28:56.164Z,31.17
2022-11-07T02:29:18.365Z,29.67
2022-11-07T02:29:42.052Z,30.35
2022-11-07T02:30:09.552Z,31.30
2022-11-07T02:30:34.548Z,33.10
2022-11-07T02:30:56.614Z,35.15
2022-11-07T02:31:18.467Z,31.70
2022-11-07T02:31:40.352Z,31.20
2022-11-07T02:32:08.549Z,34.92
2022-11-07T02:32:30.705Z,32.67
2022-11-07T02:32:53.716Z,34.00
2022-11-07T02:33:19.611Z,30.73
2022-11-07T02:33:41.974Z,30.90
2022-11-07T02:34:04.028Z,32.00
2022-11-07T02:34:26.159Z,33.15
2022-11-07T02:34:59.009Z,30.40
2022-11-07T02:35:33.171Z,32.60
2022-11-07T02:35:55.421Z,35.75
2022-11-07T02:36:21.338Z,34.17
2022-11-07T02:36:43.097Z,30.13
2022-11-07T02:37:17.066Z,32.92
2022-11-07T02:37:39.788Z,32.75
2022-11-07T02:38:03.488Z,32.90
2022-11-07T02:38:31.065Z,34.28
2022-11-07T02:38:58.642Z,31.98
2022-11-07T02:39:20.713Z,31.98
2022-11-07T02:39:42.563Z,31.40
2022-11-07T02:40:10.092Z,31.17
2022-11-07T02:40:32.510Z,31.90
2022-11-07T02:41:16.695Z,31.20
2022-11-07T02:41:38.539Z,34.13
2022-11-07T02:42:01.843Z,32.08
2022-11-07T02:42:24.610Z,30.00
2022-11-07T02:42:47.785Z,28.42
2022-11-07T02:43:12.057Z,31.90
2022-11-07T02:43:37.096Z,31.02
2022-11-07T02:44:03.007Z,33.45
2022-11-07T02:44:25.444Z,32.25
2022-11-07T02:44:48.547Z,31.17
2022-11-07T02:45:12.439Z,37.53
2022-11-07T02:45:37.339Z,33.63
2022-11-07T02:46:02.064Z,33.47
2022-11-07T02:46:25.451Z,32.33
2022-11-07T02:46:47.688Z,32.80
2022-11-07T02:47:10.038Z,31.65
2022-11-07T02:47:32.204Z,30.88
2022-11-07T02:47:54.375Z,33.53
2022-11-07T02:48:16.813Z,32.65
2022-11-07T02:48:44.910Z,33.10
2022-11-07T02:49:06.758Z,30.60
2022-11-07T02:49:28.630Z,32.15
2022-11-07T02:49:50.388Z,35.03
2022-11-07T02:50:14.403Z,30.25
2022-11-07T02:50:36.170Z,33.33
2022-11-07T02:50:58.394Z,32.65
2022-11-07T02:51:20.177Z,29.85
2022-11-07T02:51:42.337Z,35.58
2022-11-07T02:52:04.541Z,30.85
2022-11-07T02:52:26.289Z,29.08
2022-11-07T02:52:48.075Z,33.72
2022-11-07T02:53:10.279Z,30.90
2022-11-07T02:53:32.153Z,32.17
2022-11-07T02:53:54.278Z,33.08
2022-11-07T02:54:16.811Z,36.25
2022-11-07T02:54:38.542Z,34.15
2022-11-07T02:55:00.656Z,32.80
2022-11-07T02:55:23.008Z,35.00
2022-11-07T02:55:44.769Z,33.15
2022-11-07T02:56:07.494Z,32.53
2022-11-07T02:56:29.362Z,31.80
2022-11-07T02:56:51.119Z,33.65
2022-11-07T02:57:12.888Z,31.90
2022-11-07T02:57:35.078Z,32.72
2022-11-07T02:57:57.272Z,32.88
2022-11-07T02:58:19.302Z,30.13
2022-11-07T02:58:41.485Z,31.70
2022-11-07T02:59:03.665Z,32.63
2022-11-07T02:59:27.203Z,34.88
2022-11-07T02:59:49.342Z,31.20
2022-11-07T03:00:13.724Z,32.25
2022-11-07T03:00:35.595Z,32.88
2022-11-07T03:01:07.157Z,37.63
2022-11-07T03:01:29.292Z,32.58
2022-11-07T03:01:51.282Z,30.60
2022-11-07T03:02:13.383Z,33.15
2022-11-07T03:02:35.493Z,34.63
2022-11-07T03:02:57.494Z,32.30
2022-11-07T03:03:19.759Z,30.77
2022-11-07T03:03:43.230Z,32.97
2022-11-07T03:04:05.727Z,33.25
2022-11-07T03:04:28.216Z,32.25
2022-11-07T03:04:50.273Z,31.65
2022-11-07T03:05:12.352Z,34.05
2022-11-07T03:05:34.241Z,34.20
2022-11-07T03:05:56.919Z,32.13
2022-11-07T03:06:24.603Z,33.95
2022-11-07T03:06:46.399Z,33.45
2022-11-07T03:07:08.119Z,34.30
2022-11-07T03:07:29.875Z,31.58
2022-11-07T03:07:51.652Z,32.70
2022-11-07T03:08:13.379Z,35.97
2022-11-07T03:08:35.180Z,34.20
2022-11-07T03:08:56.996Z,31.35
2022-11-07T03:09:19.042Z,34.07
2022-11-07T03:09:40.799Z,30.73
2022-11-07T03:10:02.951Z,31.85
2022-11-07T03:10:24.706Z,32.60
2022-11-07T03:10:46.429Z,30.92
2022-11-07T03:11:08.364Z,32.05
2022-11-07T03:11:30.237Z,32.40
2022-11-07T03:11:53.898Z,30.77
2022-11-07T03:12:15.647Z,32.33
2022-11-07T03:12:37.734Z,35.17
2022-11-07T03:12:59.988Z,32.40
2022-11-07T03:13:22.098Z,31.20
2022-11-07T03:13:43.849Z,33.75
2022-11-07T03:14:05.628Z,32.80
2022-11-07T03:14:27.436Z,29.83
2022-11-07T03:14:49.308Z,31.38
2022-11-07T03:15:13.041Z,31.25
2022-11-07T03:15:34.791Z,31.75
2022-11-07T03:15:56.563Z,32.00
2022-11-07T03:16:19.989Z,32.08
2022-11-07T03:16:41.746Z,32.95
2022-11-07T03:17:07.566Z,35.08
2022-11-07T03:17:29.311Z,33.47
2022-11-07T03:17:51.460Z,34.40
2022-11-07T03:18:13.668Z,33.63
2022-11-07T03:18:36.267Z,33.28
2022-11-07T03:18:58.473Z,31.88
2022-11-07T03:19:20.381Z,29.83
2022-11-07T03:19:42.251Z,30.50
2022-11-07T03:20:04.746Z,32.10
2022-11-07T03:20:26.597Z,29.73
2022-11-07T03:20:48.514Z,29.95
2022-11-07T03:21:10.367Z,31.90
2022-11-07T03:21:32.525Z,32.33
2022-11-07T03:21:54.675Z,32.80
2022-11-07T03:22:16.451Z,31.85
2022-11-07T03:22:38.874Z,33.83
2022-11-07T03:23:00.647Z,32.70
2022-11-07T03:23:22.397Z,30.30
2022-11-07T03:23:44.169Z,32.60
2022-11-07T03:24:06.487Z,32.15
2022-11-07T03:24:28.533Z,34.58
2022-11-07T03:24:50.555Z,33.22
2022-11-07T03:25:12.335Z,32.63
2022-11-07T03:25:34.071Z,32.75
2022-11-07T03:25:55.896Z,32.72
2022-11-07T03:26:17.703Z,32.42
2022-11-07T03:26:39.573Z,33.33
2022-11-07T03:27:02.472Z,33.00
2022-11-07T03:27:24.313Z,33.78
2022-11-07T03:27:47.624Z,34.63
2022-11-07T03:28:10.070Z,32.87
2022-11-07T03:28:32.304Z,33.42
2022-11-07T03:28:54.074Z,34.50
2022-11-07T03:29:16.226Z,32.45
2022-11-07T03:29:38.079Z,32.30
2022-11-07T03:29:59.770Z,32.97
2022-11-07T03:30:21.659Z,31.75
2022-11-07T03:30:43.432Z,32.03
2022-11-07T03:31:05.453Z,32.88
2022-11-07T03:31:27.917Z,34.65
2022-11-07T03:31:50.517Z,30.45
2022-11-07T03:32:12.859Z,31.58
2022-11-07T03:32:35.015Z,35.38
2022-11-07T03:32:58.593Z,33.53
2022-11-07T03:33:20.354Z,31.25
2022-11-07T03:33:43.477Z,34.45
2022-11-07T03:34:05.193Z,33.50
2022-11-07T03:34:26.947Z,33.22
2022-11-07T03:34:48.750Z,33.20
2022-11-07T03:35:11.234Z,33.33
2022-11-07T03:35:33.037Z,28.92
2022-11-07T03:35:54.909Z,30.10
2022-11-07T03:36:16.952Z,30.27
2022-11-07T03:36:38.676Z,34.05
2022-11-07T03:37:00.820Z,30.83
2022-11-07T03:37:22.565Z,29.65
2022-11-07T03:37:48.328Z,31.83
2022-11-07T03:38:11.303Z,34.53
2022-11-07T03:38:33.572Z,33.58
2022-11-07T03:38:55.636Z,33.33
2022-11-07T03:39:20.619Z,33.60
2022-11-07T03:39:46.930Z,34.00
2022-11-07T03:40:09.601Z,33.38
2022-11-07T03:40:31.581Z,34.30
2022-11-07T03:40:53.403Z,35.10
2022-11-07T03:41:17.340Z,34.10
2022-11-07T03:41:39.090Z,31.77
2022-11-07T03:42:00.870Z,32.63
2022-11-07T03:42:23.010Z,34.83
2022-11-07T03:42:45.834Z,31.50
2022-11-07T03:43:07.585Z,33.38
2022-11-07T03:43:29.403Z,33.40
2022-11-07T03:43:51.229Z,33.78
2022-11-07T03:44:12.990Z,36.30
2022-11-07T03:44:34.895Z,31.17
2022-11-07T03:44:57.731Z,31.10
2022-11-07T03:45:19.940Z,32.83
2022-11-07T03:45:41.992Z,31.40
2022-11-07T03:46:04.122Z,36.33
2022-11-07T03:46:25.871Z,36.25
2022-11-07T03:46:47.702Z,32.97
2022-11-07T03:47:09.855Z,33.65
2022-11-07T03:47:35.348Z,31.52
2022-11-07T03:47:57.115Z,34.58
2022-11-07T03:48:18.942Z,33.85
2022-11-07T03:48:40.808Z,38.45
2022-11-07T03:49:02.932Z,35.55
2022-11-07T03:49:25.056Z,33.85
2022-11-07T03:49:46.871Z,31.13
2022-11-07T03:50:11.099Z,33.92
2022-11-07T03:50:32.978Z,35.28
2022-11-07T03:50:54.861Z,33.30
2022-11-07T03:51:16.687Z,32.33
2022-11-07T03:51:38.496Z,36.45
2022-11-07T03:52:00.345Z,36.30
2022-11-07T03:52:22.123Z,34.00
2022-11-07T03:52:44.561Z,35.30
2022-11-07T03:53:06.300Z,33.80
2022-11-07T03:53:28.423Z,32.47
2022-11-07T03:53:50.660Z,32.35
2022-11-07T03:54:12.852Z,30.83
2022-11-07T03:54:34.637Z,32.25
2022-11-07T03:54:56.852Z,35.65
2022-11-07T03:55:18.637Z,35.83
2022-11-07T03:55:41.100Z,34.70
2022-11-07T03:56:10.344Z,31.80
2022-11-07T03:56:33.027Z,29.45
2022-11-07T03:56:54.777Z,31.73
2022-11-07T03:57:16.560Z,31.10
2022-11-07T03:57:38.560Z,32.25
2022-11-07T03:58:00.677Z,31.77
2022-11-07T03:58:23.044Z,31.98
2022-11-07T03:58:44.765Z,32.95
2022-11-07T03:59:06.677Z,35.08
2022-11-07T03:59:28.463Z,33.42
2022-11-07T03:59:50.596Z,35.80
2022-11-07T04:00:13.936Z,30.95
2022-11-07T04:00:36.172Z,32.63
2022-11-07T04:00:58.354Z,33.38
2022-11-07T04:01:20.181Z,33.63
2022-11-07T04:01:42.196Z,33.67
2022-11-07T04:02:04.155Z,34.20
2022-11-07T04:02:26.740Z,33.10
2022-11-07T04:02:49.083Z,31.92
2022-11-07T04:03:11.364Z,32.58
2022-11-07T04:03:33.719Z,33.50
2022-11-07T04:03:56.441Z,30.60
2022-11-07T04:04:18.343Z,34.03
2022-11-07T04:04:40.596Z,33.45
2022-11-07T04:05:02.563Z,35.55
2022-11-07T04:05:24.442Z,32.58
2022-11-07T04:05:46.164Z,34.05
2022-11-07T04:06:08.249Z,34.78
2022-11-07T04:06:30.012Z,37.50
2022-11-07T04:06:51.801Z,35.53
2022-11-07T04:07:13.696Z,31.63
2022-11-07T04:07:35.848Z,31.80
2022-11-07T04:07:57.949Z,31.90
2022-11-07T04:08:19.761Z,33.03
2022-11-07T04:08:41.683Z,30.77
2022-11-07T04:09:03.900Z,31.55
2022-11-07T04:09:26.012Z,30.38
2022-11-07T04:09:47.768Z,31.33
2022-11-07T04:10:09.562Z,32.50
2022-11-07T04:10:31.312Z,33.40
2022-11-07T04:10:53.567Z,33.08
2022-11-07T04:11:35.259Z,33.45
2022-11-07T04:12:16.548Z,34.47
2022-11-07T04:12:56.725Z,31.63
2022-11-07T04:13:37.055Z,31.15
2022-11-07T04:14:17.434Z,34.28
2022-11-07T04:14:57.765Z,33.28
2022-11-07T04:15:38.541Z,32.67
2022-11-07T04:16:19.387Z,32.60
2022-11-07T04:17:00.965Z,33.22
2022-11-07T04:17:23.043Z,32.80
2022-11-07T04:17:44.787Z,33.63
2022-11-07T04:18:06.661Z,32.72
2022-11-07T04:18:28.511Z,31.98
2022-11-07T04:18:50.355Z,32.78
2022-11-07T04:19:12.491Z,34.40
2022-11-07T04:19:34.210Z,37.28
2022-11-07T04:19:57.213Z,35.13
2022-11-07T04:20:19.623Z,30.92
2022-11-07T04:20:41.372Z,34.30
2022-11-07T04:21:03.154Z,32.42
2022-11-07T04:21:25.110Z,32.80
2022-11-07T04:21:46.837Z,34.38
2022-11-07T04:22:08.600Z,32.05
2022-11-07T04:22:30.349Z,31.48
2022-11-07T04:22:52.226Z,32.85
2022-11-07T04:23:14.261Z,35.70
2022-11-07T04:23:36.445Z,33.28
2022-11-07T04:23:58.513Z,33.60
2022-11-07T04:24:20.329Z,32.92
2022-11-07T04:24:46.007Z,30.55
2022-11-07T04:25:08.716Z,30.85
2022-11-07T04:25:49.783Z,32.95
2022-11-07T04:26:30.258Z,33.38
2022-11-07T04:27:24.137Z,34.00
2022-11-07T04:27:47.036Z,32.72
2022-11-07T04:28:09.386Z,33.58
2022-11-07T04:28:31.152Z,35.05
2022-11-07T04:28:52.887Z,33.42
2022-11-07T04:29:14.620Z,34.20
2022-11-07T04:29:36.750Z,33.78
2022-11-07T04:29:58.951Z,35.03
2022-11-07T04:30:23.622Z,37.38
2022-11-07T04:30:45.383Z,34.25
2022-11-07T04:31:07.244Z,37.80
2022-11-07T04:31:29.074Z,31.48
2022-11-07T04:31:50.861Z,31.95
2022-11-07T04:32:13.058Z,33.70
2022-11-07T04:32:35.222Z,33.55
2022-11-07T04:32:58.512Z,34.10
2022-11-07T04:33:20.825Z,31.17
2022-11-07T04:33:42.620Z,30.63
2022-11-07T04:34:04.659Z,29.15
2022-11-07T04:34:26.383Z,32.45
2022-11-07T04:34:48.506Z,33.42
2022-11-07T04:35:10.659Z,34.40
2022-11-07T04:35:33.459Z,35.83
2022-11-07T04:35:55.273Z,33.60
2022-11-07T04:36:19.505Z,33.05
2022-11-07T04:36:42.131Z,34.05
2022-11-07T04:37:03.875Z,32.47
2022-11-07T04:37:26.002Z,34.33
2022-11-07T04:37:48.589Z,34.10
2022-11-07T04:38:10.393Z,36.83
2022-11-07T04:38:32.215Z,37.30
2022-11-07T04:38:55.369Z,35.65
2022-11-07T04:39:17.493Z,33.75
2022-11-07T04:39:39.236Z,34.85
2022-11-07T04:40:01.322Z,34.08
2022-11-07T04:40:23.209Z,33.28
2022-11-07T04:40:45.050Z,34.20
2022-11-07T04:41:06.809Z,36.58
2022-11-07T04:41:28.626Z,34.83
2022-11-07T04:41:50.629Z,34.03
2022-11-07T04:42:12.513Z,36.63
2022-11-07T04:42:34.313Z,35.88
2022-11-07T04:42:56.140Z,34.55
2022-11-07T04:43:18.033Z,36.88
2022-11-07T04:43:39.910Z,36.58
2022-11-07T04:44:01.637Z,33.40
2022-11-07T04:44:23.378Z,32.47
2022-11-07T04:44:45.128Z,35.42
2022-11-07T04:45:08.084Z,37.88
2022-11-07T04:45:29.895Z,36.90
2022-11-07T04:45:52.009Z,37.08
2022-11-07T04:46:14.416Z,33.85
2022-11-07T04:46:36.716Z,36.30
2022-11-07T04:46:58.581Z,34.92
2022-11-07T04:47:20.331Z,33.05
2022-11-07T04:47:42.611Z,34.88
2022-11-07T04:48:05.167Z,41.80
2022-11-07T04:48:26.928Z,33.50
2022-11-07T04:48:48.666Z,37.85
2022-11-07T04:49:10.493Z,36.85
2022-11-07T04:49:32.217Z,36.08
2022-11-07T04:49:54.275Z,37.45
2022-11-07T04:50:18.652Z,32.50
2022-11-07T04:50:41.112Z,35.85
2022-11-07T04:51:02.939Z,36.30
2022-11-07T04:51:24.823Z,33.28
2022-11-07T04:51:46.600Z,34.90
2022-11-07T04:52:10.301Z,37.55
2022-11-07T04:52:32.359Z,36.50
2022-11-07T04:52:54.194Z,36.25
2022-11-07T04:53:17.945Z,34.40
2022-11-07T04:53:39.878Z,32.70
2022-11-07T04:54:01.647Z,35.70
2022-11-07T04:54:23.452Z,34.45
2022-11-07T04:54:45.235Z,35.95
2022-11-07T04:55:09.246Z,33.58
2022-11-07T04:55:31.018Z,32.95
2022-11-07T04:55:52.960Z,34.67
2022-11-07T04:56:15.222Z,37.05
2022-11-07T04:56:37.374Z,34.35
2022-11-07T04:56:59.182Z,36.17
2022-11-07T04:57:20.946Z,36.03
2022-11-07T04:57:42.750Z,36.35
2022-11-07T04:58:04.463Z,35.03
2022-11-07T04:58:26.271Z,33.28
2022-11-07T04:58:48.031Z,32.75
2022-11-07T04:59:09.790Z,35.00
2022-11-07T04:59:31.572Z,33.42
2022-11-07T04:59:53.363Z,36.90
2022-11-07T05:00:16.535Z,37.65
2022-11-07T05:00:38.477Z,38.67
2022-11-07T05:01:01.373Z,35.78